sensor_id;sensor_type;location;lat;lon;timestamp;temperature;humidity
2945;DHT22;1482;51.398;7.128;2024-03-08T00:01:12;3.50;1.00
2945;DHT22;1482;51.398;7.128;2024-03-08T00:03:38;3.60;1.00
2945;DHT22;1482;51.398;7.128;2024-03-08T00:06:04;3.60;1.00
2945;DHT22;1482;51.398;7.128;2024-03-08T00:08:31;3.50;1.00
2945;DHT22;1482;51.398;7.128;2024-03-08T00:10:57;3.40;1.00
2945;DHT22;1482;51.398;7.128;2024-03-08T00:13:22;3.30;1.00
2945;DHT22;1482;51.398;7.128;2024-03-08T00:15:48;3.40;1.00
2945;DHT22;1482;51.398;7.128;2024-03-08T00:18:13;3.40;1.00
2945;DHT22;1482;51.398;7.128;2024-03-08T00:20:39;3.30;1.00
2945;DHT22;1482;51.398;7.128;2024-03-08T00:23:04;3.30;1.00
2945;DHT22;1482;51.398;7.128;2024-03-08T00:25:30;3.20;1.00
2945;DHT22;1482;51.398;7.128;2024-03-08T00:27:56;3.20;1.00
2945;DHT22;1482;51.398;7.128;2024-03-08T00:30:22;3.10;1.00
2945;DHT22;1482;51.398;7.128;2024-03-08T00:32:49;3.00;1.00
2945;DHT22;1482;51.398;7.128;2024-03-08T00:35:14;3.00;1.00
2945;DHT22;1482;51.398;7.128;2024-03-08T00:37:40;3.00;1.00
2945;DHT22;1482;51.398;7.128;2024-03-08T00:40:07;3.00;1.00
2945;DHT22;1482;51.398;7.128;2024-03-08T00:42:34;2.90;1.00
2945;DHT22;1482;51.398;7.128;2024-03-08T00:45:00;3.00;1.00
2945;DHT22;1482;51.398;7.128;2024-03-08T00:47:26;2.90;1.00
2945;DHT22;1482;51.398;7.128;2024-03-08T00:49:52;2.90;1.00
2945;DHT22;1482;51.398;7.128;2024-03-08T00:52:18;2.90;1.00
2945;DHT22;1482;51.398;7.128;2024-03-08T00:54:44;2.90;1.00
2945;DHT22;1482;51.398;7.128;2024-03-08T00:57:10;2.90;1.00
2945;DHT22;1482;51.398;7.128;2024-03-08T00:59:38;2.90;1.00
2945;DHT22;1482;51.398;7.128;2024-03-08T01:02:03;2.80;1.00
2945;DHT22;1482;51.398;7.128;2024-03-08T01:04:29;2.80;1.00
2945;DHT22;1482;51.398;7.128;2024-03-08T01:06:56;2.80;1.00
2945;DHT22;1482;51.398;7.128;2024-03-08T01:09:22;2.80;1.00
2945;DHT22;1482;51.398;7.128;2024-03-08T01:11:48;2.80;1.00
2945;DHT22;1482;51.398;7.128;2024-03-08T01:14:14;2.80;1.00
2945;DHT22;1482;51.398;7.128;2024-03-08T01:16:40;2.80;1.00
2945;DHT22;1482;51.398;7.128;2024-03-08T01:19:06;2.90;1.00
2945;DHT22;1482;51.398;7.128;2024-03-08T01:21:32;2.90;1.00
2945;DHT22;1482;51.398;7.128;2024-03-08T01:23:57;2.90;1.00
2945;DHT22;1482;51.398;7.128;2024-03-08T01:26:23;2.80;1.00
2945;DHT22;1482;51.398;7.128;2024-03-08T01:28:49;2.80;1.00
2945;DHT22;1482;51.398;7.128;2024-03-08T01:31:15;2.80;1.00
2945;DHT22;1482;51.398;7.128;2024-03-08T01:33:41;2.70;1.00
2945;DHT22;1482;51.398;7.128;2024-03-08T01:36:07;2.70;1.00
2945;DHT22;1482;51.398;7.128;2024-03-08T01:38:32;2.70;1.00
2945;DHT22;1482;51.398;7.128;2024-03-08T01:40:59;2.60;1.00
2945;DHT22;1482;51.398;7.128;2024-03-08T01:43:28;2.60;1.00
2945;DHT22;1482;51.398;7.128;2024-03-08T01:45:56;2.50;1.00
2945;DHT22;1482;51.398;7.128;2024-03-08T01:48:23;2.60;1.00
2945;DHT22;1482;51.398;7.128;2024-03-08T01:50:49;2.60;1.00
2945;DHT22;1482;51.398;7.128;2024-03-08T01:53:17;2.60;1.00
2945;DHT22;1482;51.398;7.128;2024-03-08T01:55:45;2.50;1.00
2945;DHT22;1482;51.398;7.128;2024-03-08T01:58:12;2.50;1.00
2945;DHT22;1482;51.398;7.128;2024-03-08T02:00:43;2.50;1.00
2945;DHT22;1482;51.398;7.128;2024-03-08T02:03:09;2.40;1.00
2945;DHT22;1482;51.398;7.128;2024-03-08T02:05:36;2.50;1.00
2945;DHT22;1482;51.398;7.128;2024-03-08T02:08:02;2.50;1.00
2945;DHT22;1482;51.398;7.128;2024-03-08T02:10:28;2.50;1.00
2945;DHT22;1482;51.398;7.128;2024-03-08T02:12:55;2.50;1.00
2945;DHT22;1482;51.398;7.128;2024-03-08T02:15:20;2.50;1.00
2945;DHT22;1482;51.398;7.128;2024-03-08T02:17:46;2.50;1.00
2945;DHT22;1482;51.398;7.128;2024-03-08T02:20:12;2.50;1.00
2945;DHT22;1482;51.398;7.128;2024-03-08T02:22:38;2.40;1.00
2945;DHT22;1482;51.398;7.128;2024-03-08T02:25:04;2.40;1.00
2945;DHT22;1482;51.398;7.128;2024-03-08T02:27:31;2.40;1.00
2945;DHT22;1482;51.398;7.128;2024-03-08T02:29:57;2.40;1.00
2945;DHT22;1482;51.398;7.128;2024-03-08T02:32:23;2.40;1.00
2945;DHT22;1482;51.398;7.128;2024-03-08T02:34:49;2.30;1.00
2945;DHT22;1482;51.398;7.128;2024-03-08T02:37:15;2.20;1.00
2945;DHT22;1482;51.398;7.128;2024-03-08T02:39:41;2.20;1.00
2945;DHT22;1482;51.398;7.128;2024-03-08T02:42:07;2.20;1.00
2945;DHT22;1482;51.398;7.128;2024-03-08T02:44:32;2.20;1.00
2945;DHT22;1482;51.398;7.128;2024-03-08T02:46:59;2.00;1.00
2945;DHT22;1482;51.398;7.128;2024-03-08T02:49:25;2.00;1.00
2945;DHT22;1482;51.398;7.128;2024-03-08T02:51:52;2.00;1.00
2945;DHT22;1482;51.398;7.128;2024-03-08T02:54:17;2.00;1.00
2945;DHT22;1482;51.398;7.128;2024-03-08T02:56:45;2.00;1.00
2945;DHT22;1482;51.398;7.128;2024-03-08T02:59:14;2.00;1.00
2945;DHT22;1482;51.398;7.128;2024-03-08T03:01:43;2.00;1.00
2945;DHT22;1482;51.398;7.128;2024-03-08T03:04:08;2.00;1.00
2945;DHT22;1482;51.398;7.128;2024-03-08T03:06:34;2.00;1.00
2945;DHT22;1482;51.398;7.128;2024-03-08T03:08:59;2.00;1.00
2945;DHT22;1482;51.398;7.128;2024-03-08T03:11:25;2.00;1.00
2945;DHT22;1482;51.398;7.128;2024-03-08T03:13:50;2.00;1.00
2945;DHT22;1482;51.398;7.128;2024-03-08T03:16:19;2.00;1.00
2945;DHT22;1482;51.398;7.128;2024-03-08T03:18:45;2.00;1.00
2945;DHT22;1482;51.398;7.128;2024-03-08T03:21:11;1.90;1.00
2945;DHT22;1482;51.398;7.128;2024-03-08T03:23:38;2.00;1.00
2945;DHT22;1482;51.398;7.128;2024-03-08T03:26:05;2.00;1.00
2945;DHT22;1482;51.398;7.128;2024-03-08T03:28:32;1.90;1.00
2945;DHT22;1482;51.398;7.128;2024-03-08T03:30:58;2.00;1.00
2945;DHT22;1482;51.398;7.128;2024-03-08T03:33:24;2.00;1.00
2945;DHT22;1482;51.398;7.128;2024-03-08T03:35:50;1.90;1.00
2945;DHT22;1482;51.398;7.128;2024-03-08T03:38:17;1.90;1.00
2945;DHT22;1482;51.398;7.128;2024-03-08T03:40:43;2.00;1.00
2945;DHT22;1482;51.398;7.128;2024-03-08T03:43:11;2.00;1.00
2945;DHT22;1482;51.398;7.128;2024-03-08T03:45:36;2.00;1.00
2945;DHT22;1482;51.398;7.128;2024-03-08T03:48:03;2.00;1.00
2945;DHT22;1482;51.398;7.128;2024-03-08T03:50:29;2.00;1.00
2945;DHT22;1482;51.398;7.128;2024-03-08T03:52:55;2.00;1.00
2945;DHT22;1482;51.398;7.128;2024-03-08T03:55:21;2.00;1.00
2945;DHT22;1482;51.398;7.128;2024-03-08T03:57:47;2.00;1.00
2945;DHT22;1482;51.398;7.128;2024-03-08T04:00:13;1.90;1.00
2945;DHT22;1482;51.398;7.128;2024-03-08T04:02:39;2.00;1.00
2945;DHT22;1482;51.398;7.128;2024-03-08T04:05:06;2.00;1.00
2945;DHT22;1482;51.398;7.128;2024-03-08T04:07:31;1.90;1.00
2945;DHT22;1482;51.398;7.128;2024-03-08T04:09:57;1.90;1.00
2945;DHT22;1482;51.398;7.128;2024-03-08T04:12:22;1.90;1.00
2945;DHT22;1482;51.398;7.128;2024-03-08T04:14:48;1.90;1.00
2945;DHT22;1482;51.398;7.128;2024-03-08T04:17:14;1.90;1.00
2945;DHT22;1482;51.398;7.128;2024-03-08T04:19:39;1.90;1.00
2945;DHT22;1482;51.398;7.128;2024-03-08T04:22:06;1.80;1.00
2945;DHT22;1482;51.398;7.128;2024-03-08T04:24:33;1.80;1.00
2945;DHT22;1482;51.398;7.128;2024-03-08T04:26:58;1.80;1.00
2945;DHT22;1482;51.398;7.128;2024-03-08T04:29:24;1.70;1.00
2945;DHT22;1482;51.398;7.128;2024-03-08T04:31:50;1.70;1.00
2945;DHT22;1482;51.398;7.128;2024-03-08T04:34:22;1.70;1.00
2945;DHT22;1482;51.398;7.128;2024-03-08T04:36:48;1.80;1.00
2945;DHT22;1482;51.398;7.128;2024-03-08T04:39:14;1.70;1.00
2945;DHT22;1482;51.398;7.128;2024-03-08T04:41:41;1.70;1.00
2945;DHT22;1482;51.398;7.128;2024-03-08T04:44:12;1.70;1.00
2945;DHT22;1482;51.398;7.128;2024-03-08T04:46:38;1.60;1.00
2945;DHT22;1482;51.398;7.128;2024-03-08T04:49:03;1.60;1.00
2945;DHT22;1482;51.398;7.128;2024-03-08T04:51:29;1.50;1.00
2945;DHT22;1482;51.398;7.128;2024-03-08T04:53:55;1.60;1.00
2945;DHT22;1482;51.398;7.128;2024-03-08T04:56:20;1.50;1.00
2945;DHT22;1482;51.398;7.128;2024-03-08T04:58:46;1.50;1.00
2945;DHT22;1482;51.398;7.128;2024-03-08T05:01:12;1.50;1.00
2945;DHT22;1482;51.398;7.128;2024-03-08T05:03:38;1.40;1.00
2945;DHT22;1482;51.398;7.128;2024-03-08T05:06:06;1.40;1.00
2945;DHT22;1482;51.398;7.128;2024-03-08T05:08:32;1.40;1.00
2945;DHT22;1482;51.398;7.128;2024-03-08T05:10:58;1.40;1.00
2945;DHT22;1482;51.398;7.128;2024-03-08T05:13:24;1.50;1.00
2945;DHT22;1482;51.398;7.128;2024-03-08T05:15:49;1.40;1.00
2945;DHT22;1482;51.398;7.128;2024-03-08T05:18:18;1.40;1.00
2945;DHT22;1482;51.398;7.128;2024-03-08T05:20:43;1.40;1.00
2945;DHT22;1482;51.398;7.128;2024-03-08T05:23:09;1.30;1.00
2945;DHT22;1482;51.398;7.128;2024-03-08T05:25:34;1.30;1.00
2945;DHT22;1482;51.398;7.128;2024-03-08T05:28:00;1.30;1.00
2945;DHT22;1482;51.398;7.128;2024-03-08T05:30:25;1.20;1.00
2945;DHT22;1482;51.398;7.128;2024-03-08T05:32:51;1.30;1.00
2945;DHT22;1482;51.398;7.128;2024-03-08T05:35:16;1.20;1.00
2945;DHT22;1482;51.398;7.128;2024-03-08T05:37:42;1.20;1.00
2945;DHT22;1482;51.398;7.128;2024-03-08T05:40:08;1.20;1.00
2945;DHT22;1482;51.398;7.128;2024-03-08T05:42:37;1.20;1.00
2945;DHT22;1482;51.398;7.128;2024-03-08T05:45:04;1.10;1.00
2945;DHT22;1482;51.398;7.128;2024-03-08T05:47:31;1.10;1.00
2945;DHT22;1482;51.398;7.128;2024-03-08T05:49:58;1.20;1.00
2945;DHT22;1482;51.398;7.128;2024-03-08T05:52:24;1.10;1.00
2945;DHT22;1482;51.398;7.128;2024-03-08T05:54:51;1.10;1.00
2945;DHT22;1482;51.398;7.128;2024-03-08T05:57:17;1.20;1.00
2945;DHT22;1482;51.398;7.128;2024-03-08T05:59:42;1.10;1.00
2945;DHT22;1482;51.398;7.128;2024-03-08T06:02:08;1.10;1.00
2945;DHT22;1482;51.398;7.128;2024-03-08T06:04:33;1.20;1.00
2945;DHT22;1482;51.398;7.128;2024-03-08T06:06:59;1.10;1.00
2945;DHT22;1482;51.398;7.128;2024-03-08T06:09:25;1.10;1.00
2945;DHT22;1482;51.398;7.128;2024-03-08T06:11:51;1.20;1.00
2945;DHT22;1482;51.398;7.128;2024-03-08T06:14:17;1.30;1.00
2945;DHT22;1482;51.398;7.128;2024-03-08T06:16:47;1.30;1.00
2945;DHT22;1482;51.398;7.128;2024-03-08T06:19:13;1.40;1.00
2945;DHT22;1482;51.398;7.128;2024-03-08T06:21:39;1.40;1.00
2945;DHT22;1482;51.398;7.128;2024-03-08T06:24:05;1.40;1.00
2945;DHT22;1482;51.398;7.128;2024-03-08T06:26:30;1.50;1.00
2945;DHT22;1482;51.398;7.128;2024-03-08T06:28:56;1.60;1.00
2945;DHT22;1482;51.398;7.128;2024-03-08T06:31:22;1.60;1.00
2945;DHT22;1482;51.398;7.128;2024-03-08T06:33:48;1.70;1.00
2945;DHT22;1482;51.398;7.128;2024-03-08T06:36:17;1.80;1.00
2945;DHT22;1482;51.398;7.128;2024-03-08T06:38:48;1.90;1.00
2945;DHT22;1482;51.398;7.128;2024-03-08T06:41:14;2.00;1.00
2945;DHT22;1482;51.398;7.128;2024-03-08T06:43:46;2.00;1.00
2945;DHT22;1482;51.398;7.128;2024-03-08T06:46:14;2.20;1.00
2945;DHT22;1482;51.398;7.128;2024-03-08T06:48:42;2.20;1.00
2945;DHT22;1482;51.398;7.128;2024-03-08T06:51:08;2.20;1.00
2945;DHT22;1482;51.398;7.128;2024-03-08T06:53:33;2.60;1.00
2945;DHT22;1482;51.398;7.128;2024-03-08T06:56:03;2.80;1.00
2945;DHT22;1482;51.398;7.128;2024-03-08T06:58:29;3.80;1.00
2945;DHT22;1482;51.398;7.128;2024-03-08T07:00:55;5.20;1.00
2945;DHT22;1482;51.398;7.128;2024-03-08T07:03:23;7.40;1.00
2945;DHT22;1482;51.398;7.128;2024-03-08T07:05:49;8.90;1.00
2945;DHT22;1482;51.398;7.128;2024-03-08T07:08:14;10.90;1.00
2945;DHT22;1482;51.398;7.128;2024-03-08T07:10:41;12.40;1.00
2945;DHT22;1482;51.398;7.128;2024-03-08T07:13:07;14.30;1.00
2945;DHT22;1482;51.398;7.128;2024-03-08T07:15:33;16.00;1.00
2945;DHT22;1482;51.398;7.128;2024-03-08T07:17:58;17.60;1.00
2945;DHT22;1482;51.398;7.128;2024-03-08T07:20:25;17.70;1.00
2945;DHT22;1482;51.398;7.128;2024-03-08T07:22:50;18.70;1.00
2945;DHT22;1482;51.398;7.128;2024-03-08T07:25:17;18.50;1.00
2945;DHT22;1482;51.398;7.128;2024-03-08T07:27:52;18.70;1.00
2945;DHT22;1482;51.398;7.128;2024-03-08T07:30:22;18.20;1.00
2945;DHT22;1482;51.398;7.128;2024-03-08T07:33:06;19.30;1.00
2945;DHT22;1482;51.398;7.128;2024-03-08T07:35:37;21.00;1.00
2945;DHT22;1482;51.398;7.128;2024-03-08T07:38:04;22.00;1.00
2945;DHT22;1482;51.398;7.128;2024-03-08T07:40:31;23.10;1.00
2945;DHT22;1482;51.398;7.128;2024-03-08T07:42:56;24.00;1.00
2945;DHT22;1482;51.398;7.128;2024-03-08T07:45:23;25.00;1.00
2945;DHT22;1482;51.398;7.128;2024-03-08T07:47:48;25.80;1.00
2945;DHT22;1482;51.398;7.128;2024-03-08T07:50:16;26.40;1.00
2945;DHT22;1482;51.398;7.128;2024-03-08T07:52:42;27.50;1.00
2945;DHT22;1482;51.398;7.128;2024-03-08T07:55:08;27.90;1.00
2945;DHT22;1482;51.398;7.128;2024-03-08T07:57:34;28.90;1.00
2945;DHT22;1482;51.398;7.128;2024-03-08T07:59:59;29.40;1.00
2945;DHT22;1482;51.398;7.128;2024-03-08T08:02:25;29.60;1.00
2945;DHT22;1482;51.398;7.128;2024-03-08T08:04:50;29.90;1.00
2945;DHT22;1482;51.398;7.128;2024-03-08T08:07:16;30.40;1.00
2945;DHT22;1482;51.398;7.128;2024-03-08T08:09:41;29.90;1.00
2945;DHT22;1482;51.398;7.128;2024-03-08T08:12:10;29.10;1.00
2945;DHT22;1482;51.398;7.128;2024-03-08T08:14:37;29.40;1.00
2945;DHT22;1482;51.398;7.128;2024-03-08T08:17:03;29.40;1.00
2945;DHT22;1482;51.398;7.128;2024-03-08T08:19:29;29.70;1.00
2945;DHT22;1482;51.398;7.128;2024-03-08T08:21:55;28.10;1.00
2945;DHT22;1482;51.398;7.128;2024-03-08T08:24:21;28.60;1.00
2945;DHT22;1482;51.398;7.128;2024-03-08T08:26:47;26.70;1.00
2945;DHT22;1482;51.398;7.128;2024-03-08T08:29:12;27.10;1.00
2945;DHT22;1482;51.398;7.128;2024-03-08T08:31:39;26.50;1.00
2945;DHT22;1482;51.398;7.128;2024-03-08T08:34:04;26.00;1.00
2945;DHT22;1482;51.398;7.128;2024-03-08T08:36:31;24.60;1.00
2945;DHT22;1482;51.398;7.128;2024-03-08T08:38:57;24.40;1.00
2945;DHT22;1482;51.398;7.128;2024-03-08T08:41:23;23.20;1.00
2945;DHT22;1482;51.398;7.128;2024-03-08T08:43:49;22.80;1.00
2945;DHT22;1482;51.398;7.128;2024-03-08T08:46:18;22.60;1.00
2945;DHT22;1482;51.398;7.128;2024-03-08T08:48:44;22.50;1.00
2945;DHT22;1482;51.398;7.128;2024-03-08T08:51:11;23.00;1.00
2945;DHT22;1482;51.398;7.128;2024-03-08T08:53:40;22.40;1.00
2945;DHT22;1482;51.398;7.128;2024-03-08T08:56:09;22.10;1.00
2945;DHT22;1482;51.398;7.128;2024-03-08T08:58:38;22.00;1.00
2945;DHT22;1482;51.398;7.128;2024-03-08T09:01:05;21.10;1.00
2945;DHT22;1482;51.398;7.128;2024-03-08T09:03:30;20.30;1.00
2945;DHT22;1482;51.398;7.128;2024-03-08T09:05:56;20.50;1.00
2945;DHT22;1482;51.398;7.128;2024-03-08T09:08:21;20.20;1.00
2945;DHT22;1482;51.398;7.128;2024-03-08T09:10:48;19.30;1.00
2945;DHT22;1482;51.398;7.128;2024-03-08T09:13:14;19.50;1.00
2945;DHT22;1482;51.398;7.128;2024-03-08T09:15:39;20.00;1.00
2945;DHT22;1482;51.398;7.128;2024-03-08T09:18:06;20.40;1.00
2945;DHT22;1482;51.398;7.128;2024-03-08T09:20:31;20.20;1.00
2945;DHT22;1482;51.398;7.128;2024-03-08T09:22:57;19.90;1.00
2945;DHT22;1482;51.398;7.128;2024-03-08T09:25:23;20.40;1.00
2945;DHT22;1482;51.398;7.128;2024-03-08T09:27:48;21.00;1.00
2945;DHT22;1482;51.398;7.128;2024-03-08T09:33:37;20.70;1.00
2945;DHT22;1482;51.398;7.128;2024-03-08T09:36:05;19.90;1.00
2945;DHT22;1482;51.398;7.128;2024-03-08T09:48:35;18.30;1.00
2945;DHT22;1482;51.398;7.128;2024-03-08T09:51:01;20.40;1.00
2945;DHT22;1482;51.398;7.128;2024-03-08T09:53:26;20.20;1.00
2945;DHT22;1482;51.398;7.128;2024-03-08T09:55:52;19.50;1.00
2945;DHT22;1482;51.398;7.128;2024-03-08T09:58:17;17.60;1.00
2945;DHT22;1482;51.398;7.128;2024-03-08T10:00:58;17.60;1.00
2945;DHT22;1482;51.398;7.128;2024-03-08T10:03:24;17.60;1.00
2945;DHT22;1482;51.398;7.128;2024-03-08T10:05:53;17.90;1.00
2945;DHT22;1482;51.398;7.128;2024-03-08T10:08:21;16.60;1.00
2945;DHT22;1482;51.398;7.128;2024-03-08T10:10:47;16.80;1.00
2945;DHT22;1482;51.398;7.128;2024-03-08T10:13:15;16.60;1.00
2945;DHT22;1482;51.398;7.128;2024-03-08T10:15:43;15.50;1.00
2945;DHT22;1482;51.398;7.128;2024-03-08T10:18:10;14.70;1.00
2945;DHT22;1482;51.398;7.128;2024-03-08T10:20:36;14.70;1.00
2945;DHT22;1482;51.398;7.128;2024-03-08T10:23:03;14.10;1.00
2945;DHT22;1482;51.398;7.128;2024-03-08T10:25:30;13.40;1.00
2945;DHT22;1482;51.398;7.128;2024-03-08T10:27:56;13.30;1.00
2945;DHT22;1482;51.398;7.128;2024-03-08T10:30:22;12.70;1.00
2945;DHT22;1482;51.398;7.128;2024-03-08T10:32:48;12.40;1.00
2945;DHT22;1482;51.398;7.128;2024-03-08T10:35:14;12.40;1.00
2945;DHT22;1482;51.398;7.128;2024-03-08T10:37:47;12.20;1.00
2945;DHT22;1482;51.398;7.128;2024-03-08T10:40:17;11.60;1.00
2945;DHT22;1482;51.398;7.128;2024-03-08T10:42:52;11.90;1.00
2945;DHT22;1482;51.398;7.128;2024-03-08T10:48:29;11.90;1.00
2945;DHT22;1482;51.398;7.128;2024-03-08T10:51:04;12.10;1.00
2945;DHT22;1482;51.398;7.128;2024-03-08T10:53:30;11.90;1.00
2945;DHT22;1482;51.398;7.128;2024-03-08T10:55:57;11.70;1.00
2945;DHT22;1482;51.398;7.128;2024-03-08T10:58:24;11.70;1.00
2945;DHT22;1482;51.398;7.128;2024-03-08T11:00:54;11.60;1.00
2945;DHT22;1482;51.398;7.128;2024-03-08T11:06:08;11.60;1.00
2945;DHT22;1482;51.398;7.128;2024-03-08T11:08:36;11.40;1.00
2945;DHT22;1482;51.398;7.128;2024-03-08T11:11:02;11.40;1.00
2945;DHT22;1482;51.398;7.128;2024-03-08T11:13:38;11.70;1.00
2945;DHT22;1482;51.398;7.128;2024-03-08T11:16:36;11.50;1.00
2945;DHT22;1482;51.398;7.128;2024-03-08T11:19:23;11.50;1.00
2945;DHT22;1482;51.398;7.128;2024-03-08T11:22:00;11.30;1.00
2945;DHT22;1482;51.398;7.128;2024-03-08T11:24:26;11.60;1.00
2945;DHT22;1482;51.398;7.128;2024-03-08T11:26:56;11.60;1.00
2945;DHT22;1482;51.398;7.128;2024-03-08T11:32:15;11.50;1.00
2945;DHT22;1482;51.398;7.128;2024-03-08T11:34:47;11.50;1.00
2945;DHT22;1482;51.398;7.128;2024-03-08T11:37:17;11.80;1.00
2945;DHT22;1482;51.398;7.128;2024-03-08T11:40:02;11.80;1.00
2945;DHT22;1482;51.398;7.128;2024-03-08T11:42:30;11.80;1.00
2945;DHT22;1482;51.398;7.128;2024-03-08T11:44:56;11.70;1.00
2945;DHT22;1482;51.398;7.128;2024-03-08T11:47:23;11.70;1.00
2945;DHT22;1482;51.398;7.128;2024-03-08T11:49:49;11.40;1.00
2945;DHT22;1482;51.398;7.128;2024-03-08T11:52:15;11.70;1.00
2945;DHT22;1482;51.398;7.128;2024-03-08T11:54:42;11.90;1.00
2945;DHT22;1482;51.398;7.128;2024-03-08T11:57:09;12.10;1.00
2945;DHT22;1482;51.398;7.128;2024-03-08T11:59:35;12.10;1.00
2945;DHT22;1482;51.398;7.128;2024-03-08T12:02:05;12.00;1.00
2945;DHT22;1482;51.398;7.128;2024-03-08T12:04:31;12.00;1.00
2945;DHT22;1482;51.398;7.128;2024-03-08T12:06:59;12.00;1.00
2945;DHT22;1482;51.398;7.128;2024-03-08T12:09:31;12.10;1.00
2945;DHT22;1482;51.398;7.128;2024-03-08T12:11:58;12.10;1.00
2945;DHT22;1482;51.398;7.128;2024-03-08T12:14:24;12.10;1.00
2945;DHT22;1482;51.398;7.128;2024-03-08T12:16:51;12.20;1.00
2945;DHT22;1482;51.398;7.128;2024-03-08T12:19:17;12.10;1.00
2945;DHT22;1482;51.398;7.128;2024-03-08T12:21:42;11.90;1.00
2945;DHT22;1482;51.398;7.128;2024-03-08T12:24:17;12.10;1.00
2945;DHT22;1482;51.398;7.128;2024-03-08T12:26:47;11.90;1.00
2945;DHT22;1482;51.398;7.128;2024-03-08T12:29:27;12.10;1.00
2945;DHT22;1482;51.398;7.128;2024-03-08T12:31:55;12.10;1.00
2945;DHT22;1482;51.398;7.128;2024-03-08T12:34:21;12.10;1.00
2945;DHT22;1482;51.398;7.128;2024-03-08T12:36:48;12.20;1.00
2945;DHT22;1482;51.398;7.128;2024-03-08T12:39:20;12.20;1.00
2945;DHT22;1482;51.398;7.128;2024-03-08T12:41:48;12.40;1.00
2945;DHT22;1482;51.398;7.128;2024-03-08T12:44:17;12.10;1.00
2945;DHT22;1482;51.398;7.128;2024-03-08T12:46:44;12.30;1.00
2945;DHT22;1482;51.398;7.128;2024-03-08T12:49:10;12.30;1.00
2945;DHT22;1482;51.398;7.128;2024-03-08T12:51:36;12.20;1.00
2945;DHT22;1482;51.398;7.128;2024-03-08T12:54:04;12.30;1.00
2945;DHT22;1482;51.398;7.128;2024-03-08T12:56:31;12.30;1.00
2945;DHT22;1482;51.398;7.128;2024-03-08T12:58:59;12.30;1.00
2945;DHT22;1482;51.398;7.128;2024-03-08T13:01:25;12.00;1.00
2945;DHT22;1482;51.398;7.128;2024-03-08T13:03:52;12.00;1.00
2945;DHT22;1482;51.398;7.128;2024-03-08T13:06:18;12.10;1.00
2945;DHT22;1482;51.398;7.128;2024-03-08T13:08:45;12.10;1.00
2945;DHT22;1482;51.398;7.128;2024-03-08T13:11:10;12.30;1.00
2945;DHT22;1482;51.398;7.128;2024-03-08T13:13:42;12.20;1.00
2945;DHT22;1482;51.398;7.128;2024-03-08T13:16:09;12.50;1.00
2945;DHT22;1482;51.398;7.128;2024-03-08T13:18:36;12.70;1.00
2945;DHT22;1482;51.398;7.128;2024-03-08T13:21:01;12.70;1.00
2945;DHT22;1482;51.398;7.128;2024-03-08T13:23:33;12.70;1.00
2945;DHT22;1482;51.398;7.128;2024-03-08T13:26:05;12.60;1.00
2945;DHT22;1482;51.398;7.128;2024-03-08T13:28:30;12.80;1.00
2945;DHT22;1482;51.398;7.128;2024-03-08T13:31:02;12.80;1.00
2945;DHT22;1482;51.398;7.128;2024-03-08T13:33:28;12.90;1.00
2945;DHT22;1482;51.398;7.128;2024-03-08T13:35:54;12.90;1.00
2945;DHT22;1482;51.398;7.128;2024-03-08T13:38:19;12.90;1.00
2945;DHT22;1482;51.398;7.128;2024-03-08T13:40:46;12.60;1.00
2945;DHT22;1482;51.398;7.128;2024-03-08T13:43:12;12.70;1.00
2945;DHT22;1482;51.398;7.128;2024-03-08T13:45:38;12.60;1.00
2945;DHT22;1482;51.398;7.128;2024-03-08T13:48:04;12.50;1.00
2945;DHT22;1482;51.398;7.128;2024-03-08T13:50:30;12.40;1.00
2945;DHT22;1482;51.398;7.128;2024-03-08T13:52:56;12.40;1.00
2945;DHT22;1482;51.398;7.128;2024-03-08T13:55:22;12.30;1.00
2945;DHT22;1482;51.398;7.128;2024-03-08T13:57:48;12.40;1.00
2945;DHT22;1482;51.398;7.128;2024-03-08T14:00:14;12.50;1.00
2945;DHT22;1482;51.398;7.128;2024-03-08T14:02:40;12.50;1.00
2945;DHT22;1482;51.398;7.128;2024-03-08T14:05:07;12.60;1.00
2945;DHT22;1482;51.398;7.128;2024-03-08T14:07:34;12.60;1.00
2945;DHT22;1482;51.398;7.128;2024-03-08T14:10:00;12.70;1.00
2945;DHT22;1482;51.398;7.128;2024-03-08T14:12:25;12.70;1.00
2945;DHT22;1482;51.398;7.128;2024-03-08T14:14:54;12.70;1.00
2945;DHT22;1482;51.398;7.128;2024-03-08T14:17:20;12.60;1.00
2945;DHT22;1482;51.398;7.128;2024-03-08T14:19:45;12.50;1.00
2945;DHT22;1482;51.398;7.128;2024-03-08T14:22:11;12.50;1.00
2945;DHT22;1482;51.398;7.128;2024-03-08T14:24:40;12.50;1.00
2945;DHT22;1482;51.398;7.128;2024-03-08T14:27:07;12.50;1.00
2945;DHT22;1482;51.398;7.128;2024-03-08T14:29:34;12.30;1.00
2945;DHT22;1482;51.398;7.128;2024-03-08T14:31:59;12.40;1.00
2945;DHT22;1482;51.398;7.128;2024-03-08T14:34:26;12.20;1.00
2945;DHT22;1482;51.398;7.128;2024-03-08T14:36:53;11.90;1.00
2945;DHT22;1482;51.398;7.128;2024-03-08T14:39:19;11.80;1.00
2945;DHT22;1482;51.398;7.128;2024-03-08T14:41:50;11.80;1.00
2945;DHT22;1482;51.398;7.128;2024-03-08T14:44:19;11.80;1.00
2945;DHT22;1482;51.398;7.128;2024-03-08T14:46:45;11.90;1.00
2945;DHT22;1482;51.398;7.128;2024-03-08T14:49:11;11.90;1.00
2945;DHT22;1482;51.398;7.128;2024-03-08T14:51:37;11.90;1.00
2945;DHT22;1482;51.398;7.128;2024-03-08T14:54:02;11.90;1.00
2945;DHT22;1482;51.398;7.128;2024-03-08T14:56:32;11.90;1.00
2945;DHT22;1482;51.398;7.128;2024-03-08T14:58:57;11.80;1.00
2945;DHT22;1482;51.398;7.128;2024-03-08T15:01:25;11.60;1.00
2945;DHT22;1482;51.398;7.128;2024-03-08T15:03:54;11.60;1.00
2945;DHT22;1482;51.398;7.128;2024-03-08T15:06:20;11.60;1.00
2945;DHT22;1482;51.398;7.128;2024-03-08T15:08:47;11.50;1.00
2945;DHT22;1482;51.398;7.128;2024-03-08T15:11:13;11.60;1.00
2945;DHT22;1482;51.398;7.128;2024-03-08T15:13:47;11.70;1.00
2945;DHT22;1482;51.398;7.128;2024-03-08T15:16:16;11.50;1.00
2945;DHT22;1482;51.398;7.128;2024-03-08T15:18:43;11.60;1.00
2945;DHT22;1482;51.398;7.128;2024-03-08T15:21:13;11.70;1.00
2945;DHT22;1482;51.398;7.128;2024-03-08T15:23:44;11.60;1.00
2945;DHT22;1482;51.398;7.128;2024-03-08T15:26:15;11.60;1.00
2945;DHT22;1482;51.398;7.128;2024-03-08T15:28:42;11.60;1.00
2945;DHT22;1482;51.398;7.128;2024-03-08T15:31:07;11.50;1.00
2945;DHT22;1482;51.398;7.128;2024-03-08T15:33:34;11.30;1.00
2945;DHT22;1482;51.398;7.128;2024-03-08T15:36:00;11.30;1.00
2945;DHT22;1482;51.398;7.128;2024-03-08T15:38:32;11.30;1.00
2945;DHT22;1482;51.398;7.128;2024-03-08T15:40:58;11.20;1.00
2945;DHT22;1482;51.398;7.128;2024-03-08T15:43:24;11.10;1.00
2945;DHT22;1482;51.398;7.128;2024-03-08T15:45:50;11.00;1.00
2945;DHT22;1482;51.398;7.128;2024-03-08T15:48:16;10.90;1.00
2945;DHT22;1482;51.398;7.128;2024-03-08T15:50:41;10.90;1.00
2945;DHT22;1482;51.398;7.128;2024-03-08T15:53:07;10.80;1.00
2945;DHT22;1482;51.398;7.128;2024-03-08T15:55:33;10.80;1.00
2945;DHT22;1482;51.398;7.128;2024-03-08T15:58:00;10.70;1.00
2945;DHT22;1482;51.398;7.128;2024-03-08T16:00:26;10.60;1.00
2945;DHT22;1482;51.398;7.128;2024-03-08T16:03:00;10.70;1.00
2945;DHT22;1482;51.398;7.128;2024-03-08T16:05:28;10.70;1.00
2945;DHT22;1482;51.398;7.128;2024-03-08T16:07:53;10.70;1.00
2945;DHT22;1482;51.398;7.128;2024-03-08T16:10:20;10.70;1.00
2945;DHT22;1482;51.398;7.128;2024-03-08T16:12:49;10.80;1.00
2945;DHT22;1482;51.398;7.128;2024-03-08T16:15:14;10.70;1.00
2945;DHT22;1482;51.398;7.128;2024-03-08T16:17:40;10.60;1.00
2945;DHT22;1482;51.398;7.128;2024-03-08T16:20:06;10.60;1.00
2945;DHT22;1482;51.398;7.128;2024-03-08T16:22:42;10.50;1.00
2945;DHT22;1482;51.398;7.128;2024-03-08T16:25:09;10.40;1.00
2945;DHT22;1482;51.398;7.128;2024-03-08T16:27:44;10.30;1.00
2945;DHT22;1482;51.398;7.128;2024-03-08T16:30:12;10.30;1.00
2945;DHT22;1482;51.398;7.128;2024-03-08T16:32:44;10.30;1.00
2945;DHT22;1482;51.398;7.128;2024-03-08T16:35:12;10.20;1.00
2945;DHT22;1482;51.398;7.128;2024-03-08T16:37:44;10.10;1.00
2945;DHT22;1482;51.398;7.128;2024-03-08T16:40:10;10.20;1.00
2945;DHT22;1482;51.398;7.128;2024-03-08T16:42:47;10.30;1.00
2945;DHT22;1482;51.398;7.128;2024-03-08T16:45:18;10.30;1.00